Time;durP1;ratioP1;P1;durP2;ratioP2;P2;SDS_P1;SDS_P2;PMS_P1;PMS_P2;Temp;Humidity;BMP_temperature;BMP_pressure;BME280_temperature;BME280_humidity;BME280_pressure;Samples;Min_cycle;Max_cycle;Signal;HPM_P1;HPM_P2
2024/02/01 00:00:57;;;;;;;8.73;5.30;;;10.00;93.70;;;;;;5094366;28;20163;-84
2024/02/01 00:03:22;;;;;;;9.87;5.10;;;10.00;93.20;;;;;;5094473;28;20244;-83
2024/02/01 00:05:48;;;;;;;8.43;4.40;;;10.00;95.50;;;;;;5094736;28;20167;-85
2024/02/01 00:08:14;;;;;;;9.67;4.90;;;10.00;94.30;;;;;;5094636;28;20251;-85
2024/02/01 00:10:39;;;;;;;8.20;4.37;;;10.00;94.50;;;;;;5094364;28;20175;-83
2024/02/01 00:13:06;;;;;;;9.17;4.43;;;10.00;95.50;;;;;;5095014;28;20210;-84
2024/02/01 00:15:32;;;;;;;9.57;4.93;;;10.00;95.30;;;;;;5097792;28;20170;-84
2024/02/01 00:17:58;;;;;;;7.30;4.50;;;10.10;95.50;;;;;;5094725;28;20635;-83
2024/02/01 00:20:23;;;;;;;9.40;5.50;;;10.10;95.50;;;;;;5095441;28;20182;-86
2024/02/01 00:22:49;;;;;;;8.23;4.83;;;10.10;95.60;;;;;;5096374;28;20582;-84
2024/02/01 00:25:15;;;;;;;9.87;4.60;;;10.00;96.80;;;;;;5098457;28;20630;-83
2024/02/01 00:27:41;;;;;;;8.30;5.40;;;10.10;98.00;;;;;;5098728;28;20543;-85
2024/02/01 00:30:07;;;;;;;7.93;4.77;;;10.10;97.50;;;;;;5098997;28;20675;-82
2024/02/01 00:32:33;;;;;;;8.03;4.93;;;10.00;99.90;;;;;;5098652;28;20631;-84
2024/02/01 00:34:58;;;;;;;7.97;4.70;;;10.10;99.90;;;;;;5098883;28;20255;-85
2024/02/01 00:37:24;;;;;;;8.93;5.00;;;10.00;99.90;;;;;;5098774;28;20243;-82
2024/02/01 00:39:49;;;;;;;12.73;5.87;;;10.10;99.90;;;;;;5105163;28;20484;-84
2024/02/01 00:42:15;;;;;;;9.53;5.30;;;10.10;99.90;;;;;;5129378;28;20713;-85
2024/02/01 00:44:41;;;;;;;9.83;5.70;;;10.10;99.90;;;;;;5116898;28;20631;-83
2024/02/01 00:47:07;;;;;;;7.70;5.27;;;10.10;99.90;;;;;;5098866;28;20651;-84
2024/02/01 00:49:36;;;;;;;9.90;5.40;;;10.10;99.90;;;;;;5099160;28;20163;-82
2024/02/01 00:52:02;;;;;;;8.73;5.80;;;10.10;99.90;;;;;;5098666;28;20211;-82
2024/02/01 00:54:29;;;;;;;8.13;4.90;;;10.10;99.90;;;;;;5110321;28;20253;-86
2024/02/01 00:56:54;;;;;;;12.50;6.20;;;10.00;99.90;;;;;;5111308;28;20178;-83
2024/02/01 00:59:20;;;;;;;9.10;5.83;;;10.00;99.90;;;;;;5100223;28;20195;-83
2024/02/01 01:01:46;;;;;;;9.97;6.00;;;9.90;99.90;;;;;;5096890;28;20198;-84
2024/02/01 01:04:16;;;;;;;9.80;6.20;;;10.00;99.90;;;;;;5098072;28;20182;-84
2024/02/01 01:06:42;;;;;;;13.90;6.63;;;10.00;99.90;;;;;;5097954;28;20171;-84
2024/02/01 01:09:09;;;;;;;9.43;6.13;;;9.90;99.90;;;;;;5097453;28;20179;-85
2024/02/01 01:11:34;;;;;;;12.13;6.50;;;10.00;99.90;;;;;;5115616;28;20190;-85
2024/02/01 01:14:00;;;;;;;12.43;7.13;;;10.10;99.90;;;;;;5116572;28;20579;-86
2024/02/01 01:16:27;;;;;;;10.80;7.07;;;10.00;99.90;;;;;;5099431;28;20690;-84
2024/02/01 01:18:52;;;;;;;11.47;7.00;;;9.90;99.90;;;;;;5097159;28;20270;-84
2024/02/01 01:21:18;;;;;;;11.87;7.10;;;9.80;99.90;;;;;;5096821;28;20216;-84
2024/02/01 01:23:44;;;;;;;9.63;6.97;;;9.80;99.90;;;;;;5097683;28;20175;-85
2024/02/01 01:26:09;;;;;;;10.07;6.90;;;9.80;99.90;;;;;;5097032;28;20543;-85
2024/02/01 01:28:35;;;;;;;12.77;7.10;;;9.80;99.90;;;;;;5115393;28;20177;-84
2024/02/01 01:31:01;;;;;;;11.37;7.77;;;9.80;99.90;;;;;;5097514;28;20171;-85
2024/02/01 01:33:27;;;;;;;11.37;7.40;;;9.70;99.90;;;;;;5115409;28;20307;-85
2024/02/01 01:35:53;;;;;;;12.57;7.93;;;9.80;99.90;;;;;;5096615;28;20210;-83
2024/02/01 01:38:18;;;;;;;11.80;7.80;;;9.70;99.90;;;;;;5097068;28;20538;-85
2024/02/01 01:40:44;;;;;;;12.03;7.27;;;9.70;99.90;;;;;;5097254;28;20690;-85
2024/02/01 01:43:09;;;;;;;9.67;7.90;;;9.60;99.90;;;;;;5097308;28;20697;-85
2024/02/01 01:45:35;;;;;;;11.07;7.73;;;9.60;99.90;;;;;;5096871;28;20206;-86
2024/02/01 01:48:01;;;;;;;10.73;8.13;;;9.60;99.90;;;;;;5097407;28;20623;-84
2024/02/01 01:50:27;;;;;;;9.23;7.80;;;9.70;99.90;;;;;;5114495;28;20224;-85
2024/02/01 01:52:54;;;;;;;10.90;7.37;;;9.60;99.90;;;;;;5097551;28;20178;-86
2024/02/01 01:55:21;;;;;;;10.43;7.83;;;9.60;99.90;;;;;;5096863;28;20175;-86
2024/02/01 01:57:48;;;;;;;9.60;8.30;;;9.50;99.90;;;;;;5096734;28;20195;-86
2024/02/01 02:00:15;;;;;;;14.00;8.70;;;9.60;99.90;;;;;;5097237;28;20182;-87
2024/02/01 02:02:42;;;;;;;10.60;8.33;;;9.60;99.90;;;;;;5115193;28;20202;-84
2024/02/01 02:05:10;;;;;;;10.97;7.30;;;9.60;99.90;;;;;;5097169;28;20505;-84
2024/02/01 02:07:38;;;;;;;13.83;8.80;;;9.50;99.90;;;;;;5097080;28;20171;-84
2024/02/01 02:10:05;;;;;;;10.60;8.23;;;9.60;99.90;;;;;;5096256;28;20195;-84
2024/02/01 02:12:31;;;;;;;10.57;8.20;;;9.60;99.90;;;;;;5097183;28;20202;-87
2024/02/01 02:14:58;;;;;;;10.43;7.40;;;9.80;99.90;;;;;;5096495;28;20206;-86
2024/02/01 02:17:25;;;;;;;11.43;8.73;;;9.70;99.90;;;;;;5096690;28;20202;-85
2024/02/01 02:19:52;;;;;;;10.40;8.40;;;9.70;99.90;;;;;;5096294;28;20643;-84
2024/02/01 02:22:24;;;;;;;10.40;8.03;;;9.70;99.90;;;;;;5096351;28;20554;-83
2024/02/01 02:24:50;;;;;;;10.03;7.60;;;9.80;99.90;;;;;;5095512;28;20201;-83
2024/02/01 02:27:20;;;;;;;11.43;8.00;;;9.80;99.90;;;;;;5097493;28;20194;-83
2024/02/01 02:29:46;;;;;;;8.00;7.20;;;9.70;99.90;;;;;;5101217;28;20182;-83
2024/02/01 02:32:11;;;;;;;9.07;7.80;;;9.80;99.90;;;;;;5100737;28;20182;-84
2024/02/01 02:34:40;;;;;;;8.83;7.23;;;9.80;99.90;;;;;;5096397;28;20171;-83
2024/02/01 02:37:08;;;;;;;10.57;8.00;;;9.80;99.90;;;;;;5097480;28;20186;-84
2024/02/01 02:39:37;;;;;;;9.97;8.17;;;9.80;99.90;;;;;;5095691;28;20174;-83
2024/02/01 02:42:04;;;;;;;11.33;8.03;;;9.90;99.90;;;;;;5095840;28;20198;-84
2024/02/01 02:44:29;;;;;;;10.00;7.60;;;9.80;99.90;;;;;;5095024;28;20179;-85
2024/02/01 02:46:55;;;;;;;9.80;7.90;;;9.90;99.90;;;;;;5096021;28;20181;-85
2024/02/01 02:49:21;;;;;;;9.60;8.10;;;9.90;99.90;;;;;;5095853;28;20221;-86
2024/02/01 02:51:47;;;;;;;9.60;8.40;;;9.90;99.90;;;;;;5096423;28;20227;-86
2024/02/01 02:54:12;;;;;;;8.30;7.40;;;9.90;99.90;;;;;;5095074;28;20612;-85
2024/02/01 02:56:38;;;;;;;10.17;7.33;;;9.90;99.90;;;;;;5095998;28;20548;-87
2024/02/01 02:59:04;;;;;;;9.20;7.50;;;9.90;99.90;;;;;;5096341;28;20210;-85
2024/02/01 03:01:29;;;;;;;8.70;7.07;;;10.00;99.90;;;;;;5114108;28;20167;-83
2024/02/01 03:03:55;;;;;;;10.07;7.70;;;10.10;99.90;;;;;;5113691;28;20216;-84
2024/02/01 03:06:21;;;;;;;10.27;7.87;;;10.10;99.90;;;;;;5095206;28;20690;-83
2024/02/01 03:08:46;;;;;;;8.27;7.27;;;10.00;99.90;;;;;;5112035;28;20727;-85
2024/02/01 03:11:12;;;;;;;8.93;7.87;;;10.00;99.90;;;;;;5094442;28;20199;-84
2024/02/01 03:13:42;;;;;;;8.80;7.77;;;9.90;99.90;;;;;;5094660;28;20167;-85
2024/02/01 03:16:18;;;;;;;8.63;7.73;;;10.10;99.90;;;;;;5095510;28;20206;-85
2024/02/01 03:18:45;;;;;;;8.67;7.00;;;10.20;99.90;;;;;;5095980;28;20204;-85
2024/02/01 03:21:11;;;;;;;8.77;7.83;;;10.10;99.90;;;;;;5099223;28;20646;-86
2024/02/01 03:23:41;;;;;;;8.77;7.40;;;10.10;99.90;;;;;;5105974;28;20206;-85
2024/02/01 03:26:06;;;;;;;9.63;7.47;;;10.10;99.90;;;;;;5102990;28;20175;-85
2024/02/01 03:28:33;;;;;;;9.10;7.33;;;10.20;99.90;;;;;;5123550;28;20189;-85
2024/02/01 03:31:01;;;;;;;11.43;7.93;;;10.30;99.90;;;;;;5108460;28;20634;-87
2024/02/01 03:33:30;;;;;;;10.03;7.60;;;10.40;99.90;;;;;;5102908;28;20166;-85
2024/02/01 03:35:57;;;;;;;10.30;7.33;;;10.30;99.90;;;;;;5095344;28;20166;-83
2024/02/01 03:38:25;;;;;;;9.03;7.50;;;10.30;99.90;;;;;;5095073;28;20190;-85
2024/02/01 03:40:51;;;;;;;10.77;7.73;;;10.30;99.90;;;;;;5094821;28;20178;-85
2024/02/01 03:43:17;;;;;;;9.03;8.03;;;10.40;99.90;;;;;;5095419;28;20203;-85
2024/02/01 03:45:48;;;;;;;9.97;8.07;;;10.40;99.90;;;;;;5095407;28;20166;-84
2024/02/01 03:48:16;;;;;;;8.67;7.73;;;10.40;99.90;;;;;;5094904;28;20171;-86
2024/02/01 03:50:42;;;;;;;9.10;7.57;;;10.40;99.90;;;;;;5095091;28;20267;-84
2024/02/01 03:53:10;;;;;;;8.63;7.47;;;10.40;99.90;;;;;;5094534;28;20203;-85
2024/02/01 03:55:37;;;;;;;9.37;8.37;;;10.50;99.90;;;;;;5095021;28;20182;-83
2024/02/01 03:58:03;;;;;;;11.43;8.43;;;10.60;99.90;;;;;;5097277;28;20816;-86
2024/02/01 04:00:30;;;;;;;10.23;8.23;;;10.50;99.90;;;;;;5099648;28;20247;-83
2024/02/01 04:02:56;;;;;;;11.40;8.83;;;10.50;99.90;;;;;;5098722;28;20680;-84
2024/02/01 04:05:26;;;;;;;10.37;9.37;;;10.60;99.90;;;;;;5099050;28;20206;-85
2024/02/01 04:07:55;;;;;;;11.70;9.37;;;10.70;99.90;;;;;;5099380;28;20206;-84
2024/02/01 04:10:21;;;;;;;12.47;10.20;;;10.80;99.90;;;;;;5099211;28;20175;-85
2024/02/01 04:12:48;;;;;;;13.30;10.43;;;10.60;99.90;;;;;;5098489;28;20695;-83
2024/02/01 04:15:13;;;;;;;12.20;10.60;;;10.80;99.90;;;;;;5117126;28;20216;-86
2024/02/01 04:17:40;;;;;;;12.83;10.93;;;10.80;99.90;;;;;;5116365;28;20163;-85
2024/02/01 04:20:07;;;;;;;14.83;11.93;;;10.80;99.90;;;;;;5098571;28;20170;-86
2024/02/01 04:22:33;;;;;;;14.70;11.10;;;10.90;99.90;;;;;;5098969;28;20225;-84
2024/02/01 04:24:59;;;;;;;16.00;12.83;;;10.90;99.90;;;;;;5097913;28;20163;-84
2024/02/01 04:27:25;;;;;;;15.17;11.63;;;10.90;99.90;;;;;;5099004;28;20182;-83
2024/02/01 04:29:51;;;;;;;18.37;12.53;;;10.90;99.90;;;;;;5099124;28;20240;-84
2024/02/01 04:32:16;;;;;;;15.97;12.77;;;11.00;99.90;;;;;;5098085;28;20174;-86
2024/02/01 04:34:42;;;;;;;16.80;12.67;;;11.10;99.90;;;;;;5098666;28;20661;-85
2024/02/01 04:37:12;;;;;;;17.33;12.57;;;11.10;99.90;;;;;;5098517;28;20166;-84
2024/02/01 04:39:37;;;;;;;20.80;12.90;;;11.10;99.90;;;;;;5097864;28;20171;-85
2024/02/01 04:42:15;;;;;;;19.27;13.13;;;11.20;99.90;;;;;;5098450;28;20221;-83
2024/02/01 04:44:48;;;;;;;19.67;13.43;;;11.20;99.90;;;;;;5098222;28;20174;-85
2024/02/01 04:47:14;;;;;;;19.83;13.97;;;11.20;99.90;;;;;;5098384;28;20645;-85
2024/02/01 04:49:39;;;;;;;19.77;14.20;;;11.30;99.90;;;;;;5098391;28;20167;-85
2024/02/01 04:52:08;;;;;;;19.63;14.83;;;11.30;99.90;;;;;;5097617;28;20171;-84
2024/02/01 04:54:34;;;;;;;19.07;12.77;;;11.30;99.90;;;;;;5097714;28;20202;-84
2024/02/01 04:57:03;;;;;;;20.07;14.40;;;11.20;99.90;;;;;;5098013;28;20224;-84
2024/02/01 04:59:30;;;;;;;17.80;13.20;;;11.30;99.90;;;;;;5097579;28;20279;-85
2024/02/01 05:02:04;;;;;;;17.83;13.77;;;11.40;99.90;;;;;;5115628;28;20250;-86
2024/02/01 05:04:30;;;;;;;23.50;13.87;;;11.30;99.90;;;;;;5097792;28;20171;-85
2024/02/01 05:06:55;;;;;;;24.60;13.80;;;11.30;99.90;;;;;;5098451;28;20178;-86
2024/02/01 05:09:25;;;;;;;19.67;13.30;;;11.20;99.90;;;;;;5098740;28;20173;-84
2024/02/01 05:11:53;;;;;;;23.97;14.67;;;11.20;99.90;;;;;;5097196;28;20176;-85
2024/02/01 05:14:20;;;;;;;22.20;13.67;;;11.20;99.90;;;;;;5097221;28;20319;-85
2024/02/01 05:16:47;;;;;;;26.13;13.97;;;11.20;99.90;;;;;;5115734;28;20242;-89
2024/02/01 05:19:13;;;;;;;20.97;13.83;;;11.20;99.90;;;;;;5103836;28;20179;-85
2024/02/01 05:21:39;;;;;;;25.87;15.10;;;11.20;99.90;;;;;;5103483;28;20174;-86
2024/02/01 05:24:06;;;;;;;25.63;14.17;;;11.10;99.90;;;;;;5096375;28;20640;-85
2024/02/01 05:26:31;;;;;;;24.20;11.93;;;11.00;99.90;;;;;;5097028;28;20603;-84
2024/02/01 05:28:57;;;;;;;18.57;10.13;;;10.80;99.90;;;;;;5097153;28;20203;-84
2024/02/01 05:31:23;;;;;;;15.30;9.07;;;10.60;99.90;;;;;;5097182;28;20246;-83
2024/02/01 05:33:48;;;;;;;14.73;6.77;;;10.50;99.90;;;;;;5096544;28;20171;-84
2024/02/01 05:36:14;;;;;;;19.53;7.63;;;10.30;99.90;;;;;;5096374;28;20269;-85
2024/02/01 05:38:40;;;;;;;12.90;5.63;;;10.20;99.90;;;;;;5096896;28;20175;-84
2024/02/01 05:41:15;;;;;;;17.13;5.53;;;10.10;99.90;;;;;;5095475;28;20221;-83
2024/02/01 05:43:42;;;;;;;9.97;4.00;;;10.00;99.90;;;;;;5114907;28;20206;-86
2024/02/01 05:46:09;;;;;;;13.57;3.93;;;9.80;99.90;;;;;;5097239;28;20163;-83
2024/02/01 05:48:36;;;;;;;11.13;3.60;;;9.90;99.90;;;;;;5114715;28;20166;-85
2024/02/01 05:51:02;;;;;;;10.43;4.07;;;9.80;99.90;;;;;;5096743;28;20163;-84
2024/02/01 05:53:27;;;;;;;12.73;4.43;;;9.80;99.90;;;;;;5096542;28;20265;-84
2024/02/01 05:55:53;;;;;;;12.60;3.90;;;9.70;99.90;;;;;;5097022;28;20206;-84
2024/02/01 05:58:19;;;;;;;9.93;2.87;;;9.60;99.90;;;;;;5095413;28;20198;-83
2024/02/01 06:00:45;;;;;;;10.90;3.50;;;9.60;99.90;;;;;;5096502;28;20277;-85
2024/02/01 06:03:11;;;;;;;10.10;2.70;;;9.70;99.90;;;;;;5095920;28;20784;-84
2024/02/01 06:05:36;;;;;;;13.00;3.57;;;9.60;99.90;;;;;;5096614;28;20167;-83
2024/02/01 06:08:02;;;;;;;11.20;3.10;;;9.60;99.90;;;;;;5096363;28;20248;-83
2024/02/01 06:10:28;;;;;;;12.83;3.17;;;9.50;99.90;;;;;;5097172;28;20175;-85
2024/02/01 06:12:54;;;;;;;9.97;2.80;;;9.40;99.90;;;;;;5097171;28;20654;-83
2024/02/01 06:15:19;;;;;;;13.60;3.57;;;9.50;99.90;;;;;;5098015;28;20658;-85
2024/02/01 06:17:45;;;;;;;15.13;3.50;;;9.50;99.90;;;;;;5116774;28;20170;-84
2024/02/01 06:20:11;;;;;;;14.23;3.43;;;9.60;99.90;;;;;;5095784;28;20185;-84
2024/02/01 06:22:37;;;;;;;14.30;3.83;;;9.60;99.90;;;;;;5095894;28;20242;-84
2024/02/01 06:25:04;;;;;;;10.73;3.40;;;9.70;98.90;;;;;;5095919;28;20657;-84
2024/02/01 06:27:30;;;;;;;13.23;3.30;;;9.80;98.00;;;;;;5112904;28;20696;-85
2024/02/01 06:29:58;;;;;;;9.33;3.07;;;9.60;98.50;;;;;;5095793;28;20171;-84
2024/02/01 06:32:25;;;;;;;13.80;3.40;;;9.70;99.60;;;;;;5094741;28;20588;-83
2024/02/01 06:35:16;;;;;;;10.67;3.90;;;9.80;95.60;;;;;;5097318;28;20174;-85
2024/02/01 06:37:43;;;;;;;13.33;3.10;;;9.60;95.50;;;;;;5114188;28;20560;-84
2024/02/01 06:43:11;;;;;;;13.57;3.80;;;9.60;99.90;;;;;;5113753;28;20600;-83
2024/02/01 06:45:47;;;;;;;14.77;3.33;;;9.70;99.90;;;;;;5094151;28;20171;-84
2024/02/01 06:48:14;;;;;;;12.83;3.83;;;9.80;99.90;;;;;;5095600;28;20170;-84
2024/02/01 06:50:46;;;;;;;15.53;4.33;;;9.80;99.90;;;;;;5095444;28;20634;-85
2024/02/01 06:53:19;;;;;;;12.10;3.63;;;9.60;99.90;;;;;;5095477;28;20179;-84
2024/02/01 06:55:54;;;;;;;12.07;2.87;;;9.50;99.90;;;;;;5095464;28;20175;-85
2024/02/01 06:58:38;;;;;;;20.77;4.00;;;9.40;99.90;;;;;;5113731;28;20190;-84
2024/02/01 07:01:33;;;;;;;10.93;3.40;;;9.40;99.90;;;;;;5094623;28;20186;-86
2024/02/01 07:07:18;;;;;;;11.97;3.20;;;9.50;99.90;;;;;;5100745;28;20175;-81
2024/02/01 07:09:47;;;;;;;11.13;3.20;;;9.70;99.90;;;;;;5095730;28;20171;-86
2024/02/01 07:12:29;;;;;;;11.27;3.53;;;9.60;99.90;;;;;;5092754;28;20234;-87
2024/02/01 07:15:19;;;;;;;11.23;3.67;;;9.40;99.90;;;;;;5096060;28;20178;-85
2024/02/01 07:17:47;;;;;;;11.43;3.27;;;9.40;99.90;;;;;;5093636;28;20351;-86
2024/02/01 07:20:23;;;;;;;16.43;3.60;;;9.40;99.90;;;;;;5094400;28;20178;-86
2024/02/01 07:23:00;;;;;;;10.60;3.20;;;9.40;99.90;;;;;;5094645;28;20297;-85
2024/02/01 07:58:21;;;;;;;14.13;3.90;;;8.60;99.90;;;;;;5099089;28;20256;-85
2024/02/01 08:00:51;;;;;;;14.73;3.70;;;8.60;99.90;;;;;;5074903;28;20618;-85
2024/02/01 08:08:38;;;;;;;11.07;3.57;;;8.50;99.90;;;;;;5093140;28;20179;-84
2024/02/01 08:11:04;;;;;;;11.80;3.30;;;8.50;99.90;;;;;;5075283;28;20518;-84
2024/02/01 08:13:30;;;;;;;15.93;4.33;;;8.50;99.90;;;;;;5075137;28;20172;-87
2024/02/01 08:15:57;;;;;;;12.83;3.73;;;8.60;99.90;;;;;;5074964;28;20175;-84
2024/02/01 08:18:26;;;;;;;13.93;4.73;;;8.60;99.90;;;;;;5075454;28;20183;-84
2024/02/01 08:20:53;;;;;;;16.63;3.97;;;8.60;99.90;;;;;;5092767;28;20191;-84
2024/02/01 08:23:19;;;;;;;13.13;4.40;;;8.60;99.90;;;;;;5079901;28;20203;-84
2024/02/01 08:25:46;;;;;;;16.27;3.80;;;8.50;99.90;;;;;;5078079;28;20266;-83
2024/02/01 08:28:12;;;;;;;17.53;4.77;;;8.40;99.90;;;;;;5078967;28;20176;-83
2024/02/01 08:30:38;;;;;;;12.87;3.90;;;8.40;99.90;;;;;;5074684;28;20214;-85
2024/02/01 08:33:04;;;;;;;18.50;5.07;;;8.40;99.90;;;;;;5073392;28;20219;-83
2024/02/01 08:35:33;;;;;;;16.70;4.23;;;8.50;99.90;;;;;;5073508;28;20183;-85
2024/02/01 08:38:06;;;;;;;16.03;4.17;;;8.60;99.90;;;;;;5092230;28;20187;-86
2024/02/01 08:40:33;;;;;;;12.43;4.77;;;8.70;99.90;;;;;;5074425;28;20255;-86
2024/02/01 08:42:59;;;;;;;22.33;4.90;;;8.80;99.90;;;;;;5074398;28;20294;-85
2024/02/01 08:45:37;;;;;;;15.27;3.93;;;8.60;99.90;;;;;;5095679;28;20163;-86
2024/02/01 08:48:04;;;;;;;17.33;5.10;;;8.80;99.90;;;;;;5077563;28;20481;-85
2024/02/01 08:50:46;;;;;;;23.83;4.80;;;8.90;99.90;;;;;;5078049;28;20228;-85
2024/02/01 08:53:13;;;;;;;19.00;3.83;;;9.00;99.90;;;;;;5077457;28;20179;-83
2024/02/01 08:55:39;;;;;;;21.83;4.73;;;9.00;99.90;;;;;;5079769;28;20260;-87
2024/02/01 08:58:09;;;;;;;21.03;5.27;;;9.10;99.90;;;;;;5096057;28;20294;-85
2024/02/01 09:00:36;;;;;;;20.70;4.97;;;9.30;99.90;;;;;;5098463;28;20179;-84
2024/02/01 09:03:04;;;;;;;17.73;5.03;;;9.50;99.90;;;;;;5098637;28;20263;-85
2024/02/01 09:05:34;;;;;;;18.73;4.47;;;9.60;99.90;;;;;;5098273;28;20163;-84
2024/02/01 09:08:02;;;;;;;13.03;4.60;;;9.80;99.90;;;;;;5098406;28;20171;-84
2024/02/01 09:10:28;;;;;;;16.27;4.00;;;10.00;99.90;;;;;;5098227;28;20246;-84
2024/02/01 09:12:54;;;;;;;18.53;4.67;;;10.00;99.90;;;;;;5099824;28;20182;-83
2024/02/01 09:15:20;;;;;;;16.47;4.20;;;10.00;99.90;;;;;;5098642;28;20304;-86
2024/02/01 09:17:46;;;;;;;22.97;4.90;;;10.00;99.90;;;;;;5098920;28;20262;-85
2024/02/01 09:20:19;;;;;;;17.80;4.70;;;10.00;99.90;;;;;;5098420;28;20456;-85
2024/02/01 09:22:46;;;;;;;19.20;3.90;;;10.00;99.90;;;;;;5115447;28;20653;-85
2024/02/01 09:25:12;;;;;;;18.87;4.33;;;9.90;99.90;;;;;;5097520;28;20262;-84
2024/02/01 09:27:39;;;;;;;16.33;4.50;;;9.90;99.90;;;;;;5097522;28;20210;-85
2024/02/01 09:30:07;;;;;;;11.60;3.80;;;9.80;99.90;;;;;;5097006;28;20507;-86
2024/02/01 09:32:32;;;;;;;12.80;4.37;;;9.80;99.90;;;;;;5115360;28;20182;-85
2024/02/01 09:34:58;;;;;;;16.43;4.57;;;9.50;99.90;;;;;;5096988;28;20171;-84
2024/02/01 09:37:24;;;;;;;17.23;4.47;;;9.20;99.90;;;;;;5096942;28;20193;-85
2024/02/01 09:39:50;;;;;;;18.20;5.23;;;9.40;99.90;;;;;;5097110;28;20323;-83
2024/02/01 09:42:18;;;;;;;16.20;5.07;;;9.60;99.90;;;;;;5096545;28;20727;-84
2024/02/01 09:44:44;;;;;;;12.67;4.33;;;9.50;99.90;;;;;;5097013;28;20646;-83
2024/02/01 09:47:12;;;;;;;14.80;3.87;;;9.50;99.90;;;;;;5096640;28;20171;-84
2024/02/01 09:49:40;;;;;;;16.00;4.67;;;9.40;99.90;;;;;;5096186;28;20178;-84
2024/02/01 09:52:09;;;;;;;14.43;4.00;;;9.40;99.90;;;;;;5096417;28;20174;-84
2024/02/01 09:54:36;;;;;;;14.73;4.37;;;9.50;99.90;;;;;;5095409;28;20584;-82
2024/02/01 09:57:14;;;;;;;15.87;4.00;;;9.50;99.90;;;;;;5114286;28;20248;-84
2024/02/01 09:59:40;;;;;;;20.13;4.00;;;9.50;99.90;;;;;;5095879;28;20324;-83
2024/02/01 10:02:09;;;;;;;15.27;3.40;;;9.30;99.90;;;;;;5096220;28;20248;-85
2024/02/01 10:04:35;;;;;;;18.17;4.43;;;9.50;99.90;;;;;;5096014;28;20179;-84
2024/02/01 10:07:01;;;;;;;13.87;4.27;;;9.50;99.90;;;;;;5096287;28;20174;-83
2024/02/01 10:09:28;;;;;;;16.50;3.80;;;9.50;99.90;;;;;;5096048;28;20182;-85
2024/02/01 10:11:54;;;;;;;16.33;3.70;;;9.60;99.90;;;;;;5096334;28;20174;-83
2024/02/01 10:14:34;;;;;;;13.63;3.87;;;9.70;99.90;;;;;;5096050;28;20192;-83
2024/02/01 10:17:02;;;;;;;13.77;4.20;;;9.80;99.90;;;;;;5096298;28;20201;-84
2024/02/01 10:19:28;;;;;;;9.87;3.77;;;9.90;99.90;;;;;;5096154;28;20174;-84
2024/02/01 10:22:08;;;;;;;14.57;3.83;;;10.00;99.90;;;;;;5096177;28;20198;-84
2024/02/01 10:24:45;;;;;;;16.57;3.40;;;10.00;99.90;;;;;;5114078;28;20198;-83
2024/02/01 10:27:11;;;;;;;13.93;3.37;;;9.80;99.90;;;;;;5095846;28;20171;-85
2024/02/01 10:29:41;;;;;;;14.90;4.07;;;9.90;99.90;;;;;;5095574;28;20183;-84
2024/02/01 10:32:12;;;;;;;14.47;3.87;;;9.80;99.90;;;;;;5095870;28;20266;-83
2024/02/01 10:34:43;;;;;;;12.67;3.70;;;9.90;99.90;;;;;;5095466;28;20205;-83
2024/02/01 10:37:12;;;;;;;15.63;4.23;;;9.80;99.90;;;;;;5096075;28;20171;-85
2024/02/01 10:39:43;;;;;;;14.63;3.60;;;9.70;99.90;;;;;;5095584;28;20171;-84
2024/02/01 10:42:12;;;;;;;13.40;3.57;;;9.50;99.90;;;;;;5095817;28;20301;-82
2024/02/01 10:44:41;;;;;;;11.53;3.60;;;9.50;99.90;;;;;;5095889;28;20519;-83
2024/02/01 10:47:13;;;;;;;14.73;4.47;;;9.60;99.90;;;;;;5095455;28;20527;-82
2024/02/01 10:49:43;;;;;;;16.30;4.60;;;9.80;99.90;;;;;;5095116;28;20178;-84
2024/02/01 10:52:11;;;;;;;20.73;4.33;;;9.90;99.90;;;;;;5095336;28;20186;-85
2024/02/01 10:54:38;;;;;;;13.37;4.23;;;9.70;99.90;;;;;;5095211;28;20171;-84
2024/02/01 10:57:05;;;;;;;17.63;4.20;;;10.00;99.90;;;;;;5094811;28;20175;-84
2024/02/01 10:59:31;;;;;;;16.40;4.50;;;10.00;99.90;;;;;;5095035;28;20187;-85
2024/02/01 11:01:57;;;;;;;17.07;4.07;;;10.10;99.90;;;;;;5094682;28;20491;-83
2024/02/01 11:04:23;;;;;;;16.60;4.53;;;10.10;99.90;;;;;;5094582;28;20175;-83
2024/02/01 11:06:49;;;;;;;11.40;3.53;;;10.00;99.90;;;;;;5092188;28;20584;-85
2024/02/01 11:09:22;;;;;;;19.43;4.67;;;10.10;99.90;;;;;;5098416;28;20196;-86
2024/02/01 11:11:54;;;;;;;17.80;4.10;;;9.90;99.90;;;;;;5097178;28;20195;-85
2024/02/01 11:14:28;;;;;;;14.23;3.73;;;10.00;99.90;;;;;;5095241;28;20171;-85
2024/02/01 11:16:57;;;;;;;13.13;4.37;;;10.00;99.90;;;;;;5094939;28;20174;-83
2024/02/01 11:19:29;;;;;;;14.77;4.77;;;10.20;99.90;;;;;;5094822;28;20171;-85
2024/02/01 11:21:56;;;;;;;14.40;5.17;;;10.30;99.90;;;;;;5094656;28;20201;-83
2024/02/01 11:24:26;;;;;;;14.77;4.60;;;10.30;99.90;;;;;;5094632;28;20182;-82
2024/02/01 11:27:07;;;;;;;12.13;3.83;;;10.40;99.90;;;;;;5096252;28;20235;-83
2024/02/01 11:29:35;;;;;;;14.47;4.20;;;10.40;99.90;;;;;;5094880;28;20178;-84
2024/02/01 11:32:05;;;;;;;17.10;4.60;;;10.60;99.90;;;;;;5094716;28;20167;-84
2024/02/01 11:34:35;;;;;;;13.47;3.83;;;10.50;99.90;;;;;;5113304;28;20174;-84
2024/02/01 11:37:05;;;;;;;16.60;3.37;;;10.50;99.90;;;;;;5094244;28;20171;-86
2024/02/01 11:39:31;;;;;;;16.20;4.13;;;10.30;99.90;;;;;;5094985;28;20174;-85
2024/02/01 11:41:57;;;;;;;10.53;3.70;;;10.10;99.90;;;;;;5094310;28;20194;-84
2024/02/01 11:44:23;;;;;;;16.83;4.30;;;10.40;99.90;;;;;;5094310;28;20179;-83
2024/02/01 11:46:53;;;;;;;14.93;4.07;;;10.60;99.90;;;;;;5094543;28;20170;-85
2024/02/01 11:49:25;;;;;;;15.60;4.40;;;10.80;99.90;;;;;;5094659;28;20254;-83
2024/02/01 11:52:02;;;;;;;11.17;4.17;;;10.60;99.90;;;;;;5113421;28;20270;-85
2024/02/01 11:54:29;;;;;;;16.13;4.23;;;10.70;99.90;;;;;;5095073;28;20216;-84
2024/02/01 11:56:55;;;;;;;15.30;4.20;;;10.90;99.90;;;;;;5099630;28;20182;-84
2024/02/01 11:59:23;;;;;;;18.20;4.50;;;11.00;99.90;;;;;;5101630;28;20211;-84
2024/02/01 12:01:48;;;;;;;15.57;3.50;;;11.10;99.90;;;;;;5094573;28;20175;-85
2024/02/01 12:04:16;;;;;;;11.87;3.37;;;11.10;99.90;;;;;;5097958;28;20189;-84
2024/02/01 12:06:43;;;;;;;17.13;4.97;;;11.00;99.90;;;;;;5099754;28;20717;-85
2024/02/01 12:09:14;;;;;;;8.60;3.23;;;10.80;99.90;;;;;;5094985;28;20172;-82
2024/02/01 12:11:44;;;;;;;11.60;3.70;;;10.90;99.90;;;;;;5112909;28;20169;-83
2024/02/01 12:14:17;;;;;;;10.37;3.30;;;10.90;99.90;;;;;;5094674;28;20175;-83
2024/02/01 12:16:49;;;;;;;14.53;4.03;;;10.90;99.90;;;;;;5112691;28;20755;-84
2024/02/01 12:19:17;;;;;;;10.77;3.57;;;11.10;99.90;;;;;;5096672;28;20182;-86
2024/02/01 12:21:43;;;;;;;16.00;3.67;;;11.10;99.90;;;;;;5098245;28;20201;-84
2024/02/01 12:24:10;;;;;;;9.93;2.90;;;10.90;99.90;;;;;;5098241;28;20514;-84
2024/02/01 12:26:35;;;;;;;10.33;3.30;;;10.90;99.90;;;;;;5116552;28;20170;-84
2024/02/01 12:29:01;;;;;;;11.23;3.30;;;10.90;99.90;;;;;;5098027;28;20171;-85
2024/02/01 12:31:26;;;;;;;13.53;3.13;;;10.80;99.90;;;;;;5098011;28;20171;-86
2024/02/01 12:33:54;;;;;;;11.43;3.60;;;10.80;99.90;;;;;;5097680;28;20640;-84
2024/02/01 12:36:20;;;;;;;15.43;4.10;;;11.10;99.90;;;;;;5097884;28;20171;-82
2024/02/01 12:38:45;;;;;;;13.27;3.67;;;11.30;99.90;;;;;;5097999;28;20231;-86
2024/02/01 12:41:14;;;;;;;13.53;4.07;;;11.40;99.90;;;;;;5097883;28;20179;-84
2024/02/01 12:43:42;;;;;;;13.43;4.03;;;11.30;99.90;;;;;;5097836;28;20214;-83
2024/02/01 12:46:09;;;;;;;15.23;4.13;;;11.30;99.90;;;;;;5098043;28;20167;-85
2024/02/01 12:48:37;;;;;;;16.60;3.80;;;11.30;99.90;;;;;;5097433;28;20194;-84
2024/02/01 12:51:06;;;;;;;12.13;3.80;;;11.50;99.90;;;;;;5097747;28;20243;-84
2024/02/01 12:53:33;;;;;;;12.57;3.83;;;11.50;99.90;;;;;;5097684;28;20278;-86
2024/02/01 12:55:58;;;;;;;11.23;3.90;;;11.30;99.90;;;;;;5097312;28;20178;-82
2024/02/01 12:58:24;;;;;;;13.50;3.70;;;11.30;99.90;;;;;;5115205;28;20606;-84
2024/02/01 13:00:50;;;;;;;14.50;4.30;;;11.30;99.90;;;;;;5098084;28;20658;-84
2024/02/01 13:03:17;;;;;;;17.10;4.33;;;11.30;99.90;;;;;;5097119;28;20215;-84
2024/02/01 13:05:46;;;;;;;11.90;4.00;;;11.40;99.90;;;;;;5096517;28;20187;-84
2024/02/01 13:08:15;;;;;;;14.67;3.40;;;11.20;99.90;;;;;;5097083;28;20695;-84
2024/02/01 13:10:44;;;;;;;16.97;3.80;;;11.20;99.90;;;;;;5097256;28;20302;-84
2024/02/01 13:13:10;;;;;;;16.30;4.33;;;11.30;99.90;;;;;;5097093;28;20179;-83
2024/02/01 13:15:37;;;;;;;13.57;3.30;;;11.30;99.90;;;;;;5115307;28;20568;-85
2024/02/01 13:18:11;;;;;;;10.00;3.50;;;11.30;99.90;;;;;;5097191;28;20224;-83
2024/02/01 13:20:38;;;;;;;10.27;3.40;;;11.20;99.90;;;;;;5097595;28;20504;-85
2024/02/01 13:23:08;;;;;;;14.47;3.97;;;11.00;99.90;;;;;;5094786;28;20268;-85
2024/02/01 13:25:38;;;;;;;16.10;3.30;;;11.00;99.90;;;;;;5086515;28;20274;-83
2024/02/01 13:28:04;;;;;;;13.17;3.63;;;11.00;99.90;;;;;;5076562;28;20181;-83
2024/02/01 13:30:31;;;;;;;14.17;3.33;;;11.10;99.90;;;;;;5076279;28;20332;-84